Terminal Aerodrome Forecast
Issued by NWS

Home | Current Version | Previous Version | Graphics & Text | Print | Product List | Glossary On
Versions: 1 2 3 4 5 6 7 8 9 10 11 12 13 14 15 16 17 18 19 20 21 22
000
FTUS43 KABR 022100 AAA
TAFMBG
TAF AMD
KMBG 022157Z 0222/0318 19014G21KT P6SM SCT200
     FM030000 15007KT P6SM OVC100
     FM030700 34020G30KT 3SM -SN BLSN OVC020
     FM031100 33026G35KT 6SM BLSN OVC025
     FM031500 32023G31KT P6SM BKN025=

USA.gov is the U.S. government's official web portal to all federal, state and local government web resources and services.